createdAt,value
2019-04-26T00:01:48.949Z,13.40
2019-04-26T00:04:18.775Z,13.60
2019-04-26T00:06:49.112Z,18.20
2019-04-26T00:09:20.391Z,23.13
2019-04-26T00:11:51.661Z,40.43
2019-04-26T00:14:22.861Z,65.50
2019-04-26T00:16:54.095Z,75.73
2019-04-26T00:19:23.913Z,47.13
2019-04-26T00:21:54.177Z,28.40
2019-04-26T00:24:24.172Z,23.57
2019-04-26T00:26:53.749Z,17.87
2019-04-26T00:29:23.261Z,15.33
2019-04-26T00:31:52.886Z,13.63
2019-04-26T00:34:22.663Z,14.50
2019-04-26T00:36:52.182Z,13.43
2019-04-26T00:39:24.144Z,13.63
2019-04-26T00:41:52.943Z,14.70
2019-04-26T00:44:22.868Z,13.77
2019-04-26T00:46:55.079Z,13.63
2019-04-26T00:49:24.961Z,14.00
2019-04-26T00:51:55.991Z,14.43
2019-04-26T00:54:26.487Z,13.83
2019-04-26T00:56:56.564Z,14.67
2019-04-26T00:59:26.840Z,15.97
2019-04-26T01:01:58.135Z,36.93
2019-04-26T01:04:27.583Z,69.37
2019-04-26T01:06:58.635Z,102.80
2019-04-26T01:09:28.214Z,63.93
2019-04-26T01:11:57.860Z,112.07
2019-04-26T01:14:27.493Z,39.97
2019-04-26T01:16:56.945Z,145.43
2019-04-26T01:19:27.219Z,78.67
2019-04-26T01:22:00.817Z,62.77
2019-04-26T01:24:33.414Z,80.50
2019-04-26T01:27:04.911Z,84.33
2019-04-26T01:29:36.718Z,112.20
2019-04-26T01:32:09.390Z,147.20
2019-04-26T01:34:41.620Z,112.73
2019-04-26T01:37:11.826Z,95.63
2019-04-26T01:39:45.939Z,124.63
2019-04-26T01:42:20.878Z,156.97
2019-04-26T01:44:54.763Z,159.10
2019-04-26T01:47:24.795Z,111.13
2019-04-26T01:49:54.844Z,110.63
2019-04-26T01:52:25.647Z,116.97
2019-04-26T01:54:55.468Z,99.50
2019-04-26T01:57:28.037Z,84.63
2019-04-26T01:59:59.401Z,70.83
2019-04-26T02:02:30.625Z,76.50
2019-04-26T02:05:01.882Z,88.43
2019-04-26T02:07:33.682Z,76.87
2019-04-26T02:10:03.268Z,61.10
2019-04-26T02:12:33.132Z,73.17
2019-04-26T02:15:02.797Z,78.77
2019-04-26T02:17:33.592Z,55.47
2019-04-26T02:20:06.690Z,20.70
2019-04-26T02:22:40.047Z,36.40
2019-04-26T02:25:10.019Z,111.70
2019-04-26T02:27:39.778Z,96.80
2019-04-26T02:30:09.617Z,60.20
2019-04-26T02:32:40.400Z,50.37
2019-04-26T02:35:11.576Z,59.47
2019-04-26T02:37:41.580Z,121.90
2019-04-26T02:40:14.253Z,129.40
2019-04-26T02:42:45.022Z,73.30
2019-04-26T02:45:19.294Z,84.37
2019-04-26T02:47:52.636Z,78.87
2019-04-26T02:50:28.337Z,97.10
2019-04-26T02:53:00.588Z,45.27
2019-04-26T02:55:36.961Z,38.93
2019-04-26T02:58:05.143Z,36.27
2019-04-26T03:00:35.876Z,46.70
2019-04-26T03:03:07.827Z,39.10
2019-04-26T03:05:40.840Z,31.33
2019-04-26T03:08:13.441Z,44.00
2019-04-26T03:10:45.997Z,30.83
2019-04-26T03:13:19.181Z,16.13
2019-04-26T03:15:52.787Z,29.07
2019-04-26T03:18:26.979Z,87.03
2019-04-26T03:20:59.443Z,108.00
2019-04-26T07:54:14.085Z,8.83
2019-04-26T07:56:46.633Z,8.68
2019-04-26T07:59:17.243Z,8.80
2019-04-26T08:01:49.493Z,8.23
2019-04-26T08:04:23.811Z,8.88
2019-04-26T08:06:56.362Z,8.10
2019-04-26T08:09:28.238Z,7.08
2019-04-26T08:12:00.856Z,7.70
2019-04-26T08:14:35.343Z,7.45
2019-04-26T08:17:10.460Z,8.65
2019-04-26T08:19:43.186Z,8.90
2019-04-26T08:22:21.740Z,7.60
2019-04-26T08:24:49.545Z,9.68
2019-04-26T08:27:23.961Z,7.75
2019-04-26T08:29:56.435Z,8.33
2019-04-26T08:32:32.027Z,8.13
2019-04-26T08:35:08.151Z,8.45
2019-04-26T08:37:38.165Z,7.65
2019-04-26T08:40:09.704Z,7.08
2019-04-26T08:42:41.835Z,8.93
2019-04-26T08:45:16.722Z,7.83
2019-04-26T08:47:51.073Z,7.65
2019-04-26T08:50:23.665Z,7.87
2019-04-26T08:52:57.826Z,7.42
2019-04-26T08:55:29.126Z,7.53
2019-04-26T08:58:01.788Z,6.03
2019-04-26T09:00:36.029Z,6.30
2019-04-26T09:03:11.581Z,7.58
2019-04-26T09:05:45.704Z,6.70
2019-04-26T09:08:16.831Z,6.10
2019-04-26T09:10:48.705Z,5.80
2019-04-26T09:13:20.145Z,6.42
2019-04-26T09:15:52.697Z,6.30
2019-04-26T09:18:22.332Z,6.55
2019-04-26T09:20:51.799Z,5.95
2019-04-26T09:23:22.892Z,5.40
2019-04-26T09:25:59.261Z,5.70
2019-04-26T09:28:26.974Z,4.95
2019-04-26T09:30:58.701Z,5.95
2019-04-26T09:33:31.707Z,5.50
2019-04-26T09:36:01.042Z,5.33
2019-04-26T09:38:30.602Z,5.75
2019-04-26T09:41:00.629Z,5.12
2019-04-26T09:43:32.053Z,4.55
2019-04-26T09:46:03.189Z,5.45
2019-04-26T09:48:36.640Z,5.75
2019-04-26T09:51:07.511Z,5.37
2019-04-26T09:53:39.573Z,5.03
2019-04-26T09:56:08.380Z,5.83
2019-04-26T09:58:37.985Z,5.53
2019-04-26T10:01:07.596Z,5.72
2019-04-26T10:03:37.025Z,5.08
2019-04-26T10:06:08.209Z,5.80
2019-04-26T10:08:39.177Z,6.03
2019-04-26T10:11:10.879Z,5.35
2019-04-26T10:13:43.074Z,4.53
2019-04-26T10:16:15.368Z,4.90
2019-04-26T10:18:46.503Z,5.97
2019-04-26T10:21:16.121Z,5.78
2019-04-26T10:23:45.614Z,5.60
2019-04-26T10:26:15.236Z,5.62
2019-04-26T10:28:46.733Z,4.95
2019-04-26T10:31:17.183Z,5.28
2019-04-26T10:33:46.892Z,4.92
2019-04-26T10:36:16.386Z,5.53
2019-04-26T10:38:45.931Z,5.80
2019-04-26T10:41:15.544Z,6.40
2019-04-26T10:43:45.090Z,5.67
2019-04-26T10:46:14.703Z,5.72
2019-04-26T10:48:45.544Z,5.17
2019-04-26T10:51:17.176Z,6.37
2019-04-26T10:53:50.407Z,5.08
2019-04-26T10:56:24.206Z,6.17
2019-04-26T10:58:54.346Z,5.12
2019-04-26T11:01:25.383Z,6.08
2019-04-26T11:03:54.838Z,6.83
2019-04-26T11:06:27.949Z,5.75
2019-04-26T11:08:55.752Z,6.05
2019-04-26T11:11:25.234Z,5.70
2019-04-26T11:13:57.430Z,6.08
2019-04-26T11:16:26.421Z,6.03
2019-04-26T11:18:57.199Z,5.95
2019-04-26T11:21:27.478Z,6.10
2019-04-26T11:23:56.988Z,6.62
2019-04-26T11:26:27.537Z,5.70
2019-04-26T11:28:57.237Z,5.75
2019-04-26T11:31:27.818Z,6.85
2019-04-26T11:34:05.095Z,5.35
2019-04-26T11:36:29.725Z,6.28
2019-04-26T11:39:01.370Z,5.42
2019-04-26T11:41:33.976Z,5.83
2019-04-26T11:44:05.372Z,6.20
2019-04-26T11:46:44.192Z,6.10
2019-04-26T11:49:07.148Z,5.90
2019-04-26T11:51:37.128Z,5.55
2019-04-26T11:54:06.741Z,5.50
2019-04-26T11:56:37.569Z,5.95
2019-04-26T11:59:07.521Z,5.65
2019-04-26T12:01:40.493Z,5.50
2019-04-26T12:04:09.322Z,6.22
2019-04-26T12:06:40.532Z,5.95
2019-04-26T12:09:12.027Z,5.60
2019-04-26T12:11:49.285Z,5.80
2019-04-26T12:14:20.074Z,5.20
2019-04-26T12:17:04.489Z,4.30
2019-04-26T12:19:35.114Z,4.72
2019-04-26T12:22:08.359Z,4.85
2019-04-26T12:24:36.229Z,5.62
2019-04-26T12:27:06.043Z,4.80
2019-04-26T12:29:35.679Z,4.55
2019-04-26T12:32:05.415Z,4.80
2019-04-26T12:34:34.956Z,6.78
2019-04-26T12:37:04.670Z,5.25
2019-04-26T12:39:36.633Z,4.22
2019-04-26T12:42:08.205Z,4.75
2019-04-26T12:44:41.138Z,4.37
2019-04-26T12:47:11.455Z,4.58
2019-04-26T12:49:41.065Z,4.87
2019-04-26T12:52:10.786Z,4.70
2019-04-26T12:54:42.953Z,4.92
2019-04-26T12:57:16.165Z,4.05
2019-04-26T12:59:44.821Z,4.65
2019-04-26T13:02:16.522Z,4.17
2019-04-26T13:04:45.466Z,5.47
2019-04-26T13:07:23.487Z,4.40
2019-04-26T13:09:50.079Z,9.75
2019-04-26T13:12:21.181Z,4.22
2019-04-26T13:14:52.340Z,3.67
2019-04-26T13:17:23.521Z,4.90
2019-04-26T13:19:53.882Z,4.15
2019-04-26T13:22:24.147Z,4.40
2019-04-26T13:24:54.091Z,4.80
2019-04-26T13:27:23.616Z,3.85
2019-04-26T13:30:01.808Z,4.47
2019-04-26T13:32:24.253Z,4.58
2019-04-26T13:34:53.662Z,4.55
2019-04-26T13:37:23.263Z,5.12
2019-04-26T13:39:55.276Z,4.40
2019-04-26T13:42:24.336Z,4.42
2019-04-26T13:44:55.449Z,4.55
2019-04-26T13:47:26.829Z,4.50
2019-04-26T13:49:58.025Z,3.95
2019-04-26T13:52:27.444Z,4.35
2019-04-26T13:54:56.834Z,4.60
2019-04-26T13:57:26.405Z,4.47
2019-04-26T13:59:55.863Z,5.67
2019-04-26T14:02:25.373Z,8.43
2019-04-26T14:04:54.993Z,14.58
2019-04-26T14:07:25.920Z,5.90
2019-04-26T14:09:55.713Z,4.42
2019-04-26T14:12:25.391Z,4.83
2019-04-26T14:14:54.850Z,3.95
2019-04-26T14:17:29.820Z,4.60
2019-04-26T14:19:57.987Z,9.58
2019-04-26T14:22:29.208Z,5.05
2019-04-26T14:25:00.242Z,4.72
2019-04-26T14:27:33.092Z,5.40
2019-04-26T14:30:06.485Z,4.53
2019-04-26T14:32:34.197Z,6.67
2019-04-26T14:35:04.363Z,7.33
2019-04-26T14:37:33.755Z,5.97
2019-04-26T14:40:16.560Z,6.40
2019-04-26T14:42:41.940Z,5.40
2019-04-26T14:45:07.571Z,5.03
2019-04-26T14:47:47.272Z,4.53
2019-04-26T14:50:14.811Z,4.47
2019-04-26T14:52:39.974Z,5.90
2019-04-26T14:55:09.576Z,4.58
2019-04-26T14:57:39.000Z,8.78
2019-04-26T15:00:10.383Z,7.67
2019-04-26T15:02:47.226Z,6.45
2019-04-26T15:05:14.913Z,3.87
2019-04-26T15:07:50.959Z,11.43
2019-04-26T15:10:16.604Z,4.00
2019-04-26T15:12:48.717Z,4.70
2019-04-26T15:15:17.345Z,5.17
2019-04-26T15:17:46.862Z,3.60
2019-04-26T15:20:20.794Z,5.28
2019-04-26T15:22:50.136Z,9.03
2019-04-26T15:25:19.817Z,5.00
2019-04-26T15:27:49.371Z,3.95
2019-04-26T15:30:18.852Z,4.33
2019-04-26T15:32:48.454Z,8.28
2019-04-26T15:35:18.197Z,7.45
2019-04-26T15:37:47.800Z,10.03
2019-04-26T15:40:19.377Z,5.80
2019-04-26T15:43:01.155Z,4.40
2019-04-26T15:45:25.171Z,3.72
2019-04-26T15:47:56.173Z,4.05
2019-04-26T15:50:27.280Z,3.98
2019-04-26T15:52:56.695Z,3.90
2019-04-26T15:55:26.157Z,3.77
2019-04-26T15:57:55.596Z,4.22
2019-04-26T16:00:28.436Z,4.50
2019-04-26T16:02:58.664Z,4.10
2019-04-26T16:05:29.637Z,4.22
2019-04-26T16:08:03.271Z,4.20
2019-04-26T16:10:34.739Z,4.33
2019-04-26T16:13:16.180Z,4.17
2019-04-26T16:15:33.608Z,3.83
2019-04-26T16:18:04.161Z,4.70
2019-04-26T16:20:37.694Z,3.75
2019-04-26T16:23:07.327Z,3.83
2019-04-26T16:25:38.245Z,4.50
2019-04-26T16:28:09.396Z,4.00
2019-04-26T16:30:40.692Z,4.37
2019-04-26T16:33:13.414Z,3.87
2019-04-26T16:35:43.214Z,3.40
2019-04-26T16:38:19.754Z,4.05
2019-04-26T16:40:50.768Z,4.72
2019-04-26T16:43:34.893Z,4.70
2019-04-26T16:45:48.824Z,4.17
2019-04-26T16:48:24.333Z,4.75
2019-04-26T16:50:49.410Z,4.20
2019-04-26T16:53:42.587Z,4.53
2019-04-26T16:56:09.317Z,3.87
2019-04-26T16:58:45.023Z,4.47
2019-04-26T17:01:12.384Z,4.42
2019-04-26T17:03:45.182Z,4.08
2019-04-26T17:06:14.292Z,4.15
2019-04-26T17:08:49.932Z,3.72
2019-04-26T17:11:15.164Z,4.50
2019-04-26T17:13:51.253Z,4.25
2019-04-26T17:16:16.082Z,4.65
2019-04-26T17:18:45.543Z,4.47
2019-04-26T17:21:17.527Z,4.22
2019-04-26T17:23:49.639Z,4.95
2019-04-26T17:26:22.359Z,4.10
2019-04-26T17:28:53.143Z,4.28
2019-04-26T17:31:23.365Z,4.70
2019-04-26T17:33:52.928Z,4.37
2019-04-26T17:36:22.504Z,4.03
2019-04-26T17:38:51.962Z,4.08
2019-04-26T17:41:21.413Z,6.87
2019-04-26T17:43:56.088Z,10.72
2019-04-26T17:46:22.137Z,6.33
2019-04-26T17:48:51.701Z,47.85
2019-04-26T17:51:23.170Z,41.28
2019-04-26T17:54:20.337Z,29.60
2019-04-26T17:56:26.080Z,24.65
2019-04-26T17:58:55.858Z,23.67
2019-04-26T18:01:41.870Z,21.87
2019-04-26T18:03:57.955Z,46.00
2019-04-26T18:06:29.845Z,51.02
2019-04-26T18:08:58.642Z,20.43
2019-04-26T18:11:28.156Z,12.25
2019-04-26T18:13:57.760Z,19.75
2019-04-26T18:16:29.514Z,20.50
2019-04-26T18:19:02.476Z,23.50
2019-04-26T18:21:33.504Z,45.45
2019-04-26T18:24:03.095Z,48.85
2019-04-26T18:26:33.684Z,34.88
2019-04-26T18:29:03.855Z,51.75
2019-04-26T18:31:34.018Z,115.92
2019-04-26T18:34:04.140Z,103.80
2019-04-26T18:36:33.944Z,50.75
2019-04-26T18:39:05.568Z,32.35
2019-04-26T18:41:36.745Z,17.17
2019-04-26T18:44:06.434Z,22.70
2019-04-26T18:46:40.384Z,13.65
2019-04-26T18:49:11.445Z,11.65
2019-04-26T18:51:41.900Z,233.75
2019-04-26T18:54:14.532Z,99.15
2019-04-26T18:56:43.622Z,96.85
2019-04-26T18:59:15.433Z,23.60
2019-04-26T19:01:44.359Z,11.30
2019-04-26T19:04:15.520Z,8.88
2019-04-26T19:06:45.241Z,8.85
2019-04-26T19:09:17.231Z,13.13
2019-04-26T19:11:48.478Z,23.12
2019-04-26T19:14:19.708Z,92.50
2019-04-26T19:16:56.742Z,99.47
2019-04-26T19:19:25.953Z,53.83
2019-04-26T19:21:56.659Z,30.65
2019-04-26T19:24:26.274Z,18.37
2019-04-26T19:26:55.790Z,12.75
2019-04-26T19:29:31.366Z,28.38
2019-04-26T19:32:01.533Z,48.68
2019-04-26T19:34:30.203Z,25.35
2019-04-26T19:37:01.530Z,22.05
2019-04-26T19:39:35.465Z,25.37
2019-04-26T19:42:06.244Z,23.77
2019-04-26T19:44:36.139Z,12.18
2019-04-26T19:47:07.428Z,12.00
2019-04-26T19:49:38.720Z,11.12
2019-04-26T19:52:11.621Z,10.60
2019-04-26T19:54:42.927Z,6.80
2019-04-26T19:57:14.195Z,10.72
2019-04-26T19:59:43.611Z,16.30
2019-04-26T20:02:13.229Z,15.70
2019-04-26T20:04:42.827Z,17.62
2019-04-26T20:07:12.267Z,16.48
2019-04-26T20:09:42.012Z,16.05
2019-04-26T20:12:12.478Z,13.35
2019-04-26T20:14:49.224Z,14.40
2019-04-26T20:17:19.873Z,14.15
2019-04-26T20:19:47.803Z,13.48
2019-04-26T20:22:15.489Z,19.42
2019-04-26T20:24:48.730Z,13.98
2019-04-26T20:27:20.508Z,12.93
2019-04-26T20:29:47.867Z,13.53
2019-04-26T20:32:23.810Z,12.58
2019-04-26T20:34:53.884Z,12.45
2019-04-26T20:37:25.822Z,11.35
2019-04-26T20:40:15.319Z,11.00
2019-04-26T20:42:25.698Z,8.93
2019-04-26T20:44:55.172Z,8.30
2019-04-26T20:47:24.582Z,10.25
2019-04-26T20:50:00.806Z,8.38
2019-04-26T20:52:25.208Z,10.82
2019-04-26T20:54:54.724Z,9.88
2019-04-26T20:57:26.683Z,8.50
2019-04-26T21:00:01.602Z,10.72
2019-04-26T21:02:26.401Z,10.18
2019-04-26T21:04:55.915Z,10.13
2019-04-26T21:07:25.407Z,9.98
2019-04-26T21:09:54.915Z,10.57
2019-04-26T21:12:24.499Z,9.43
2019-04-26T21:14:53.922Z,9.43
2019-04-26T21:17:27.611Z,9.40
2019-04-26T21:19:58.403Z,9.93
2019-04-26T21:22:28.722Z,17.80
2019-04-26T21:24:58.763Z,12.30
2019-04-26T21:27:31.778Z,15.50
2019-04-26T21:30:03.433Z,13.00
2019-04-26T21:32:37.686Z,10.90
2019-04-26T21:35:09.144Z,11.45
2019-04-26T21:37:40.256Z,10.08
2019-04-26T21:40:11.561Z,10.30
2019-04-26T21:42:43.339Z,22.00
2019-04-26T21:45:12.350Z,56.98
2019-04-26T21:47:43.493Z,62.15
2019-04-26T21:50:14.742Z,31.33
2019-04-26T21:52:45.672Z,27.60
2019-04-26T21:55:16.751Z,22.87
2019-04-26T21:57:46.338Z,10.82
2019-04-26T22:00:20.413Z,8.93
2019-04-26T22:02:53.242Z,8.80
2019-04-26T22:05:23.142Z,7.92
2019-04-26T22:07:53.495Z,9.25
2019-04-26T22:10:24.815Z,12.05
2019-04-26T22:12:54.422Z,12.07
2019-04-26T22:15:29.413Z,20.90
2019-04-26T22:17:58.397Z,23.77
2019-04-26T22:20:29.597Z,10.70
2019-04-26T22:23:00.646Z,10.08
2019-04-26T22:25:33.156Z,9.20
2019-04-26T22:28:03.385Z,8.50
2019-04-26T22:30:33.263Z,8.23
2019-04-26T22:33:03.148Z,9.13
2019-04-26T22:35:32.864Z,8.73
2019-04-26T22:38:04.015Z,12.05
2019-04-26T22:40:33.667Z,11.93
2019-04-26T22:43:05.305Z,10.00
2019-04-26T22:45:39.509Z,9.38
2019-04-26T22:48:11.508Z,8.27
2019-04-26T22:50:40.700Z,8.98
2019-04-26T22:53:11.934Z,8.90
2019-04-26T22:55:43.456Z,8.13
2019-04-26T22:58:13.431Z,8.55
2019-04-26T23:00:43.784Z,7.95
2019-04-26T23:03:14.126Z,8.93
2019-04-26T23:05:43.613Z,8.40
2019-04-26T23:08:14.053Z,8.85
2019-04-26T23:10:46.659Z,8.10
2019-04-26T23:13:17.777Z,8.03
2019-04-26T23:15:48.945Z,8.77
2019-04-26T23:18:21.469Z,8.43
2019-04-26T23:20:53.324Z,8.13
2019-04-26T23:23:23.643Z,9.50
2019-04-26T23:25:53.471Z,8.30
2019-04-26T23:28:27.638Z,9.85
2019-04-26T23:30:55.285Z,8.97
2019-04-26T23:33:24.767Z,9.28
2019-04-26T23:35:54.554Z,9.98
2019-04-26T23:38:24.574Z,9.50
2019-04-26T23:41:01.052Z,8.58
2019-04-26T23:43:29.210Z,8.87
2019-04-26T23:45:58.652Z,8.53
2019-04-26T23:48:28.130Z,9.93
2019-04-26T23:50:59.916Z,12.75
2019-04-26T23:53:28.713Z,10.40
2019-04-26T23:55:58.245Z,9.83
2019-04-26T23:58:27.741Z,9.38
